Latest Weather Observations for Mount Crawford

IDS60801

Issued at 3:31 pm CST Saturday 27 May 2017 (issued every 30 minutes, with the page automatically refreshed every 10 minutes)

About weather observations | Map of weather stations | Latest weather observations for SA | Other Formats
Station Details ID: 023878 Name: MOUNT CRAWFORD AWS Lat: -34.73 Lon: 138.93 Height: 525.0 m
Data from the previous 72 hours. | See also: Recent months at Mount Crawford
Date/Time
CST
Temp
°C
App
Temp
°C
Dew
Point
°C
Rel
Hum
%
Delta-T
°C
Wind Press
QNH
hPa
Press
MSL
hPa
Rain since
9am
mm
Dir  Spd
km/h
Gust
km/h
Spd
kts
Gust
kts
27/03:30pm 14.6 8.4 7.9 64 3.4 WNW 30 41 16 22 1010.1 1009.7 0.0
27/03:00pm 15.6 8.8 7.9 60 4.0 WNW 33 52 18 28 1010.4 1010.0 0.0
27/02:30pm 15.5 8.3 7.8 60 4.0 WNW 35 50 19 27 1010.4 1010.0 0.0
27/02:00pm 15.8 9.4 8.5 62 3.8 WNW 32 50 17 27 1010.6 1010.2 0.0
27/01:30pm 15.6 9.0 7.9 60 4.0 WNW 32 50 17 27 1010.8 1010.4 0.0
27/01:05pm 15.6 8.1 8.1 61 3.9 WNW 37 56 20 30 1011.3 1010.9 0.0
27/01:00pm 15.4 7.4 7.4 59 4.1 WNW 39 54 21 29 1011.3 1010.9 0.0
27/12:33pm 15.9 9.5 8.4 61 3.9 WNW 32 50 17 27 1011.8 1011.4 0.0
27/12:30pm 15.7 8.8 8.7 63 3.7 WNW 35 52 19 28 1011.8 1011.4 0.0
27/12:00pm 14.9 7.9 8.4 65 3.4 NW 35 57 19 31 1012.2 1011.8 0.0
27/11:30am 14.8 8.5 7.4 61 3.8 NW 30 50 16 27 1012.6 1012.3 0.0
27/11:08am 14.8 8.4 8.5 66 3.3 NW 32 50 17 27 1012.8 1012.5 0.0
27/11:00am 14.4 7.9 8.1 66 3.2 NW 32 48 17 26 1012.9 1012.6 0.0
27/10:37am 13.6 6.8 7.8 68 2.9 NW 33 54 18 29 1013.4 1013.0 0.0
27/10:30am 13.7 7.4 9.0 73 2.4 NW 32 48 17 26 1013.6 1013.2 0.0
27/10:00am 12.4 7.7 9.1 80 1.7 NW 24 41 13 22 1014.0 1013.6 0.0
27/09:30am 11.2 6.0 8.8 85 1.2 NW 26 37 14 20 1014.2 1013.9 0.0
27/09:00am 10.6 5.8 8.7 88 1.0 NW 24 35 13 19 1014.6 1014.3 1.0
27/08:30am 11.2 6.5 7.9 80 1.7 NW 22 32 12 17 1014.9 1014.6 0.2
27/08:00am 11.0 6.7 7.9 81 1.5 NNW 20 26 11 14 1015.3 1014.9 0.0
27/07:30am 12.1 7.2 7.0 71 2.5 NNW 22 37 12 20 1014.9 1014.6 0.0
27/07:00am 12.8 7.0 6.2 64 3.2 NNW 26 37 14 20 1014.7 1014.4 0.0
27/06:30am 12.4 7.4 6.5 67 2.9 NNW 22 32 12 17 1014.6 1014.3 0.0
27/06:00am 11.7 7.1 6.4 70 2.6 N 20 28 11 15 1014.5 1014.2 0.0
27/05:30am 11.8 7.4 6.7 71 2.5 NNW 19 26 10 14 1014.7 1014.4 0.0
27/05:00am 12.2 7.6 6.7 69 2.7 NNW 20 28 11 15 1014.7 1014.4 0.0
27/04:30am 12.0 7.4 6.7 70 2.6 NNW 20 28 11 15 1015.1 1014.7 0.0
27/04:00am 11.9 6.2 6.6 70 2.6 NNW 26 33 14 18 1015.2 1014.8 0.0
27/03:30am 11.8 6.1 6.5 70 2.6 NNW 26 35 14 19 1015.4 1015.0 0.0
27/03:00am 11.8 6.0 6.3 69 2.7 N 26 33 14 18 1015.6 1015.2 0.0
27/02:30am 11.9 6.5 6.2 68 2.8 N 24 32 13 17 1015.7 1015.3 0.0
27/02:00am 12.2 6.4 6.3 67 2.9 N 26 35 14 19 1016.0 1015.7 0.0
27/01:30am 12.1 7.0 5.9 66 3.0 N 22 33 12 18 1016.3 1016.0 0.0
27/01:00am 12.6 6.7 5.8 63 3.3 N 26 33 14 18 1016.6 1016.3 0.0
27/12:30am 13.0 7.5 5.7 61 3.5 N 24 37 13 20 1016.9 1016.6 0.0
27/12:00am 12.8 8.2 6.6 66 3.0 N 20 28 11 15 1017.2 1016.8 0.0
 
Date/Time
CST
Temp
°C
App
Temp
°C
Dew
Point
°C
Rel
Hum
%
Delta-T
°C
Wind Press
QNH
hPa
Press
MSL
hPa
Rain since
9am
mm
Dir  Spd
km/h
Gust
km/h
Spd
kts
Gust
kts
26/11:30pm 12.6 7.9 6.0 64 3.2 N 20 28 11 15 1017.3 1016.9 0.0
26/11:00pm 12.5 7.9 5.7 63 3.3 NNE 19 24 10 13 1017.6 1017.3 0.0
26/10:30pm 12.7 8.4 5.4 61 3.5 N 17 22 9 12 1017.7 1017.4 0.0
26/10:00pm 13.2 8.9 5.4 59 3.8 N 17 20 9 11 1017.9 1017.6 0.0
26/09:30pm 13.1 9.1 5.0 58 3.9 N 15 20 8 11 1018.0 1017.7 0.0
26/09:00pm 13.0 9.4 5.2 59 3.7 N 13 17 7 9 1018.0 1017.7 0.0
26/08:30pm 12.8 9.2 5.2 60 3.6 N 13 15 7 8 1018.1 1017.8 0.0
26/08:00pm 13.6 10.1 5.3 57 4.0 NNW 13 17 7 9 1018.1 1017.8 0.0
26/07:30pm 13.8 9.9 5.2 56 4.1 NW 15 19 8 10 1018.5 1018.2 0.0
26/07:00pm 14.0 10.1 5.4 56 4.2 NW 15 19 8 10 1018.4 1018.1 0.0
26/06:30pm 14.2 10.4 5.6 56 4.2 WNW 15 19 8 10 1018.3 1018.0 0.0
26/06:00pm 14.3 10.5 5.9 57 4.1 WNW 15 19 8 10 1018.1 1017.8 0.0
26/05:30pm 14.8 11.1 6.1 56 4.3 WNW 15 19 8 10 1018.0 1017.7 0.0
26/05:00pm 15.5 11.4 6.0 53 4.7 NW 17 22 9 12 1017.9 1017.6 0.0
26/04:30pm 16.2 11.7 6.1 51 5.0 NW 19 28 10 15 1018.0 1017.7 0.0
26/04:00pm 16.0 12.8 7.0 55 4.6 WNW 13 19 7 10 1018.0 1017.7 0.0
26/03:30pm 15.9 12.0 6.9 55 4.5 NW 17 26 9 14 1018.1 1017.8 0.0
26/03:00pm 16.9 12.0 7.0 52 5.0 NW 22 33 12 18 1018.1 1017.8 0.0
26/02:30pm 17.2 13.3 7.3 52 5.1 NW 17 24 9 13 1018.4 1018.1 0.0
26/02:00pm 16.1 11.6 7.1 55 4.6 WNW 20 30 11 16 1018.7 1018.4 0.0
26/01:30pm 15.3 13.0 10.3 72 2.7 NW 13 20 7 11 1019.2 1018.9 0.0
26/01:00pm 16.6 13.8 11.5 72 2.8 NNW 17 22 9 12 1019.5 1019.2 0.0
26/12:30pm 15.4 12.2 11.4 77 2.2 NW 19 28 10 15 1020.0 1019.7 0.0
26/12:00pm 15.9 13.5 12.5 80 1.9 NNW 17 26 9 14 1020.6 1020.3 0.0
26/11:30am 15.0 12.9 12.3 84 1.5 NNW 15 22 8 12 1021.0 1020.8 0.0
26/11:00am 14.0 12.4 12.7 92 0.7 WNW 13 19 7 10 1021.6 1021.3 0.0
26/10:30am 13.5 12.1 13.3 99 0.1 NW 13 17 7 9 1021.9 1021.6 0.0
26/10:00am 12.2 10.4 12.2 100 0.0 WNW 13 19 7 10 1022.2 1021.9 0.0
26/09:30am 11.5 9.5 11.5 100 0.0 NW 13 19 7 10 1022.2 1021.9 0.0
26/09:00am 11.3 9.6 11.3 100 0.0 NW 11 17 6 9 1022.3 1022.0 0.2
26/08:30am 11.0 9.2 11.0 100 0.0 NW 11 15 6 8 1022.1 1021.8 0.2
26/08:00am 10.4 8.5 10.4 100 0.0 NNW 11 17 6 9 1021.9 1021.6 0.2
26/07:30am 10.2 8.6 10.2 100 0.0 NW 9 15 5 8 1021.6 1021.3 0.2
26/07:00am 10.3 8.3 10.3 100 0.0 NW 11 15 6 8 1021.6 1021.3 0.2
26/06:30am 10.2 7.8 10.2 100 0.0 WNW 13 17 7 9 1021.5 1021.2 0.0
26/06:00am 10.3 8.0 10.3 100 0.0 WNW 13 15 7 8 1021.2 1020.9 0.0
26/05:30am 10.3 8.7 10.3 100 0.0 NW 9 15 5 8 1021.2 1020.9 0.0
26/05:00am 10.3 8.0 10.3 100 0.0 W 13 17 7 9 1021.0 1020.8 0.0
26/04:30am 10.0 8.0 10.0 100 0.0 W 11 15 6 8 1021.0 1020.8 0.0
26/04:00am 10.3 8.7 10.3 100 0.0 NW 9 11 5 6 1021.0 1020.8 0.0
26/03:30am 10.2 9.0 10.2 100 0.0 NW 7 11 4 6 1021.2 1020.9 0.0
26/03:00am 10.7 9.2 10.7 100 0.0 WNW 9 11 5 6 1021.2 1020.9 0.0
26/02:30am 10.7 8.9 10.7 100 0.0 W 11 17 6 9 1021.5 1021.2 0.0
26/02:00am 10.8 8.6 10.8 100 0.0 WNW 13 17 7 9 1021.3 1021.0 0.0
26/01:30am 11.0 8.5 11.0 100 0.0 WNW 15 19 8 10 1021.3 1021.0 0.0
26/01:00am 11.1 9.0 11.1 100 0.0 W 13 17 7 9 1021.5 1021.2 0.0
26/12:30am 11.1 9.8 11.1 100 0.0 NW 9 13 5 7 1021.8 1021.5 0.0
26/12:00am 11.2 9.9 11.2 100 0.0 W 9 11 5 6 1021.9 1021.6 0.0
 
Date/Time
CST
Temp
°C
App
Temp
°C
Dew
Point
°C
Rel
Hum
%
Delta-T
°C
Wind Press
QNH
hPa
Press
MSL
hPa
Rain since
9am
mm
Dir  Spd
km/h
Gust
km/h
Spd
kts
Gust
kts
25/11:30pm 11.5 9.5 11.5 100 0.0 WNW 13 17 7 9 1021.8 1021.5 0.0
25/11:00pm 11.7 9.8 11.7 100 0.0 WNW 13 17 7 9 1021.9 1021.6 0.0
25/10:30pm 11.7 9.7 11.5 99 0.1 WNW 13 15 7 8 1022.1 1021.8 0.0
25/10:00pm 11.6 10.4 11.6 100 0.0 WNW 9 15 5 8 1022.1 1021.8 0.0
25/09:30pm 11.4 9.3 11.2 99 0.1 WNW 13 17 7 9 1022.0 1021.7 0.0
25/09:00pm 11.2 8.7 11.0 99 0.1 W 15 19 8 10 1021.8 1021.5 0.0
25/08:30pm 11.3 9.0 10.5 95 0.4 W 13 17 7 9 1021.8 1021.5 0.0
25/08:00pm 11.5 9.6 10.4 93 0.6 W 11 19 6 10 1021.8 1021.5 0.0
25/07:30pm 11.5 8.0 10.1 91 0.7 W 19 22 10 12 1021.6 1021.3 0.0
25/07:00pm 11.4 8.9 9.7 89 0.9 W 13 17 7 9 1021.8 1021.5 0.0
25/06:30pm 11.2 9.0 9.5 89 0.9 W 11 13 6 7 1021.7 1021.4 0.0
25/06:00pm 11.8 9.3 9.7 87 1.1 W 13 15 7 8 1021.3 1021.0 0.0
25/05:30pm 12.0 10.3 9.7 86 1.2 W 9 13 5 7 1021.2 1020.9 0.0
25/05:00pm 13.4 10.5 9.8 79 1.9 W 15 22 8 12 1021.0 1020.8 0.0
25/04:30pm 14.2 10.5 9.6 74 2.4 W 19 26 10 14 1020.8 1020.6 0.0
25/04:00pm 14.6 10.4 9.6 72 2.6 W 22 33 12 18 1020.6 1020.3 0.0
25/03:30pm 14.9 9.6 9.7 71 2.8 W 28 37 15 20 1020.3 1020.0 0.0
25/03:00pm 15.0 9.8 10.4 74 2.5 W 28 41 15 22 1020.1 1019.8 0.0
25/02:30pm 14.7 8.8 10.5 76 2.3 W 32 44 17 24 1020.3 1020.0 0.0
25/02:00pm 15.4 9.7 11.0 75 2.4 W 32 46 17 25 1020.4 1020.1 0.0
25/01:30pm 14.5 8.3 9.5 72 2.6 W 32 46 17 25 1020.4 1020.1 0.0
25/01:00pm 14.3 8.2 9.9 75 2.3 W 32 48 17 26 1020.6 1020.3 0.0
25/12:57pm 14.4 8.8 10.2 76 2.2 W 30 48 16 26 1020.6 1020.3 0.0
25/12:30pm 14.1 8.2 11.1 82 1.6 W 33 48 18 26 1020.8 1020.6 0.0
25/12:00pm 13.3 7.4 11.0 86 1.2 WNW 33 48 18 26 1021.0 1020.8 0.0
25/11:30am 13.2 8.0 11.6 90 0.9 WNW 30 41 16 22 1021.5 1021.2 0.0
25/11:00am 12.1 7.8 11.9 99 0.1 W 26 35 14 19 1021.9 1021.6 0.0
25/10:30am 11.5 7.0 11.5 100 0.0 WNW 26 35 14 19 1022.0 1021.7 0.0
25/10:00am 10.6 6.3 10.6 100 0.0 WNW 24 33 13 18 1022.1 1021.8 0.0
25/09:30am 10.2 5.7 10.2 100 0.0 WNW 24 33 13 18 1022.0 1021.7 0.0
25/09:00am 9.9 4.6 9.9 100 0.0 WNW 28 39 15 21 1021.9 1021.6 0.4
25/08:30am 9.4 4.7 9.4 100 0.0 WNW 24 30 13 16 1021.6 1021.3 0.4
25/08:00am 9.5 5.2 9.5 100 0.0 WNW 22 28 12 15 1021.5 1021.2 0.4
25/07:30am 9.6 5.4 9.6 100 0.0 NW 22 32 12 17 1021.3 1021.0 0.4
25/07:00am 9.8 5.2 9.7 99 0.1 NW 24 33 13 18 1021.2 1020.9 0.4
25/06:30am 10.1 5.6 10.0 99 0.1 NW 24 33 13 18 1020.9 1020.7 0.4
25/06:00am 10.2 6.1 10.1 99 0.1 NW 22 30 12 16 1020.7 1020.5 0.4
25/05:30am 10.4 5.9 10.2 99 0.1 NW 24 33 13 18 1020.6 1020.3 0.4
25/05:00am 10.2 5.7 10.1 99 0.1 NW 24 35 13 19 1020.5 1020.2 0.4
25/04:30am 9.7 5.1 9.6 99 0.1 NW 24 35 13 19 1020.5 1020.2 0.2
25/04:00am 9.6 5.0 9.6 100 0.0 NW 24 32 13 17 1020.5 1020.2 0.2
25/03:30am 9.3 5.0 9.3 100 0.0 NW 22 33 12 18 1020.5 1020.2 0.2
25/03:00am 9.3 5.0 9.3 100 0.0 NW 22 32 12 17 1020.6 1020.3 0.2
25/02:30am 9.6 5.4 9.6 100 0.0 NW 22 28 12 15 1020.5 1020.2 0.2
25/02:00am 9.7 5.9 9.7 100 0.0 WNW 20 26 11 14 1020.6 1020.3 0.2
25/01:30am 9.8 6.2 9.8 100 0.0 NW 19 24 10 13 1020.6 1020.3 0.2
25/01:00am 10.2 6.7 10.2 100 0.0 NW 19 22 10 12 1020.8 1020.6 0.2
25/12:30am 9.7 6.8 9.7 100 0.0 NNW 15 19 8 10 1021.2 1020.9 0.2
25/12:00am 9.8 6.9 9.8 100 0.0 NNW 15 19 8 10 1021.4 1021.1 0.2
 
Date/Time
CST
Temp
°C
App
Temp
°C
Dew
Point
°C
Rel
Hum
%
Delta-T
°C
Wind Press
QNH
hPa
Press
MSL
hPa
Rain since
9am
mm
Dir  Spd
km/h
Gust
km/h
Spd
kts
Gust
kts
24/11:30pm 10.2 7.8 10.2 100 0.0 NNW 13 17 7 9 1021.5 1021.2 0.0
24/11:00pm 10.5 7.8 10.5 100 0.0 NW 15 20 8 11 1021.6 1021.3 0.0
24/10:30pm 10.8 8.6 10.8 100 0.0 NW 13 17 7 9 1021.6 1021.3 0.0
24/10:00pm 10.9 9.1 10.9 100 0.0 WNW 11 15 6 8 1021.7 1021.4 0.0
24/09:30pm 10.1 8.1 10.1 100 0.0 W 11 17 6 9 1021.7 1021.4 0.0
24/09:00pm 10.5 9.4 10.5 100 0.0 WNW 7 9 4 5 1021.7 1021.4 0.0
24/08:30pm 10.4 8.9 10.4 100 0.0 W 9 15 5 8 1021.8 1021.5 0.0
24/08:00pm 10.6 8.7 10.6 100 0.0 W 11 15 6 8 1021.6 1021.3 0.0
24/07:30pm 10.9 8.7 10.9 100 0.0 W 13 17 7 9 1021.6 1021.3 0.0
24/07:00pm 11.3 9.2 11.3 100 0.0 W 13 15 7 8 1021.6 1021.3 0.0
24/06:30pm 11.5 9.1 11.5 100 0.0 W 15 19 8 10 1021.4 1021.1 0.0
24/06:00pm 11.8 9.1 11.8 100 0.0 W 17 22 9 12 1021.3 1021.0 0.0
24/05:30pm 11.8 9.1 11.8 100 0.0 WNW 17 20 9 11 1021.3 1021.0 0.0
24/05:00pm 11.8 9.1 11.6 99 0.1 WNW 17 20 9 11 1021.3 1021.0 0.0
24/04:30pm 12.4 10.1 11.9 97 0.3 WNW 15 19 8 10 1020.9 1020.7 0.0
24/04:00pm 12.3 8.7 11.8 97 0.3 W 22 32 12 17 1020.7 1020.5 0.0

Other Formats:

Comma delimited format used in spreadsheet applications
http://www.bom.gov.au/fwo/IDS60801/IDS60801.94678.axf

JavaScript Object Notation format (JSON) in row-major order
http://www.bom.gov.au/fwo/IDS60801/IDS60801.94678.json